Time;durP1;ratioP1;P1;durP2;ratioP2;P2;SDS_P1;SDS_P2;PMS_P1;PMS_P2;Temp;Humidity;BMP_temperature;BMP_pressure;BME280_temperature;BME280_humidity;BME280_pressure;Samples;Min_cycle;Max_cycle;Signal;HPM_P1;HPM_P2
2021/12/15 00:00:08;;;;;;;9.87;8.87;;;;;;;3.88;94.12;100105.47;5054735;28;20196;-66
2021/12/15 00:02:35;;;;;;;10.27;9.37;;;;;;;3.86;94.02;100102.16;5054623;28;20951;-66
2021/12/15 00:05:02;;;;;;;9.70;8.90;;;;;;;3.93;93.65;100108.50;5055218;28;20431;-66
2021/12/15 00:07:29;;;;;;;9.93;9.03;;;;;;;3.89;94.10;100117.63;5054310;28;20295;-66
2021/12/15 00:09:56;;;;;;;9.77;8.80;;;;;;;3.84;94.72;100114.59;5054806;28;20266;-66
2021/12/15 00:12:25;;;;;;;10.50;9.40;;;;;;;3.86;94.01;100111.81;5054573;28;20254;-66
2021/12/15 00:14:52;;;;;;;11.13;9.43;;;;;;;3.85;94.01;100118.06;5054395;28;20949;-66
2021/12/15 00:17:20;;;;;;;10.77;9.77;;;;;;;3.84;94.56;100116.41;5054550;28;20850;-66
2021/12/15 00:19:47;;;;;;;11.10;10.10;;;;;;;3.86;94.03;100128.44;5054357;28;20189;-66
2021/12/15 00:22:14;;;;;;;9.70;8.80;;;;;;;3.80;94.40;100128.97;5054020;28;20439;-66
2021/12/15 00:24:41;;;;;;;9.87;8.80;;;;;;;3.81;94.61;100125.38;5054301;28;20266;-66
2021/12/15 00:27:08;;;;;;;10.20;9.20;;;;;;;3.76;94.43;100116.25;5054295;28;20568;-66
2021/12/15 00:29:36;;;;;;;10.00;9.17;;;;;;;3.78;94.51;100128.28;5055014;28;20193;-66
2021/12/15 00:32:04;;;;;;;10.87;9.53;;;;;;;3.79;95.05;100127.31;5054398;28;20254;-66
2021/12/15 00:34:32;;;;;;;11.43;9.73;;;;;;;3.76;95.10;100138.09;5058014;28;20218;-66
2021/12/15 00:36:59;;;;;;;10.83;9.73;;;;;;;3.80;94.33;100133.41;5073773;28;20659;-66
2021/12/15 00:39:27;;;;;;;10.03;9.13;;;;;;;3.77;94.61;100133.66;5074299;28;20898;-66
2021/12/15 00:41:55;;;;;;;10.73;9.63;;;;;;;3.74;94.10;100134.78;5074762;28;20469;-66
2021/12/15 00:44:22;;;;;;;10.27;9.27;;;;;;;3.83;94.54;100138.34;5073849;28;20242;-66
2021/12/15 00:46:52;;;;;;;10.60;9.50;;;;;;;3.84;94.02;100132.97;5074578;28;20227;-66
2021/12/15 00:49:20;;;;;;;11.77;9.57;;;;;;;3.81;94.33;100140.31;5074221;28;20184;-66
2021/12/15 00:51:46;;;;;;;10.33;9.27;;;;;;;3.85;94.36;100137.25;5073477;28;20848;-66
2021/12/15 00:54:15;;;;;;;10.00;9.00;;;;;;;3.87;94.25;100143.22;5073696;28;20241;-66
2021/12/15 00:56:42;;;;;;;9.13;8.23;;;;;;;3.87;94.00;100135.34;5074400;28;20488;-66
2021/12/15 00:59:11;;;;;;;10.97;9.47;;;;;;;3.88;93.53;100137.00;5073236;28;20473;-66
2021/12/15 01:01:39;;;;;;;9.67;8.77;;;;;;;3.91;93.98;100136.72;5073220;28;20681;-66
2021/12/15 01:04:09;;;;;;;10.17;9.27;;;;;;;3.96;93.86;100134.50;5073482;28;20503;-66
2021/12/15 01:06:36;;;;;;;9.87;8.87;;;;;;;3.99;93.39;100133.38;5074001;28;20444;-66
2021/12/15 01:09:07;;;;;;;9.57;8.40;;;;;;;4.02;92.92;100135.75;5073087;28;20195;-66
2021/12/15 01:11:53;;;;;;;10.40;9.40;;;;;;;3.97;92.97;100130.91;5073141;28;20667;-67
2021/12/15 01:19:47;;;;;;;9.67;8.87;;;;;;;4.01;92.58;100136.72;5073646;28;20422;-66
2021/12/15 01:20:13;;;;;;;10.20;9.13;;;;;;;4.03;93.30;100135.63;5073609;28;20179;-66
2021/12/15 01:22:45;;;;;;;10.27;9.40;;;;;;;3.98;92.38;100131.75;5072903;28;20721;-66
2021/12/15 01:25:19;;;;;;;10.13;9.13;;;;;;;3.99;92.74;100136.03;5072886;28;20529;-66
2021/12/15 01:27:47;;;;;;;10.57;9.40;;;;;;;3.98;92.47;100132.56;5072806;28;20438;-66
2021/12/15 01:30:17;;;;;;;10.47;9.53;;;;;;;4.02;93.16;100138.38;5072583;28;20196;-66
2021/12/15 01:32:44;;;;;;;10.93;9.83;;;;;;;4.03;92.38;100140.88;5073848;28;20207;-66
2021/12/15 01:35:13;;;;;;;11.23;10.23;;;;;;;4.03;92.76;100130.34;5073451;28;20196;-66
2021/12/15 01:37:40;;;;;;;10.27;9.07;;;;;;;4.07;92.39;100138.78;5072509;28;20196;-66
2021/12/15 01:40:15;;;;;;;11.40;10.33;;;;;;;4.13;92.60;100146.13;5072475;28;20249;-66
2021/12/15 01:42:42;;;;;;;12.80;11.43;;;;;;;4.16;92.33;100138.78;5073168;28;20435;-66
2021/12/15 01:48:01;;;;;;;11.83;10.63;;;;;;;4.14;91.80;100138.09;5072542;28;20272;-66
2021/12/15 01:50:29;;;;;;;11.87;10.67;;;;;;;4.14;91.47;100132.00;5072747;28;20265;-66
2021/12/15 01:52:56;;;;;;;9.10;8.33;;;;;;;4.12;91.91;100140.03;5072601;28;20253;-66
2021/12/15 01:55:24;;;;;;;9.20;8.30;;;;;;;4.12;91.56;100136.56;5072265;28;20225;-67
2021/12/15 01:57:51;;;;;;;10.40;9.37;;;;;;;4.11;91.68;100138.38;5072208;28;20660;-66
2021/12/15 02:00:21;;;;;;;10.77;9.73;;;;;;;4.06;91.56;100132.72;5072909;28;20276;-66
2021/12/15 02:02:50;;;;;;;10.00;8.97;;;;;;;3.99;92.23;100134.22;5072334;28;20730;-66
2021/12/15 02:05:17;;;;;;;9.10;8.40;;;;;;;3.99;92.41;100134.22;5072179;28;20677;-66
2021/12/15 02:07:47;;;;;;;9.87;9.00;;;;;;;4.01;92.35;100136.72;5072487;28;20195;-66
2021/12/15 02:10:15;;;;;;;9.03;8.23;;;;;;;4.03;91.44;100130.34;5072187;28;20619;-66
2021/12/15 02:12:44;;;;;;;8.97;8.23;;;;;;;3.99;91.84;100136.84;5072028;28;20609;-67
2021/12/15 02:15:16;;;;;;;8.83;8.13;;;;;;;3.99;91.82;100128.13;5072054;28;20434;-68
2021/12/15 02:17:43;;;;;;;8.73;8.03;;;;;;;3.89;91.86;100117.63;5072312;28;20245;-67
2021/12/15 02:20:13;;;;;;;8.13;7.47;;;;;;;3.86;91.77;100123.16;5072300;28;20187;-65
2021/12/15 02:22:42;;;;;;;8.57;7.87;;;;;;;3.90;91.71;100118.47;5072274;28;20192;-66
2021/12/15 02:25:13;;;;;;;11.87;8.10;;;;;;;3.83;91.76;100112.94;5072270;28;20495;-66
2021/12/15 02:27:40;;;;;;;7.63;7.03;;;;;;;3.88;91.32;100105.47;5072895;28;20218;-66
2021/12/15 02:30:23;;;;;;;8.53;7.83;;;;;;;3.92;91.03;100111.28;5072463;28;20230;-66
2021/12/15 02:33:02;;;;;;;8.97;8.17;;;;;;;3.90;90.93;100102.69;5072495;28;20521;-65
2021/12/15 02:38:15;;;;;;;7.70;7.13;;;;;;;3.91;90.75;100105.19;5072195;28;20211;-65
2021/12/15 02:40:42;;;;;;;8.47;7.83;;;;;;;4.00;90.57;100106.16;5071821;28;20191;-66
2021/12/15 02:43:08;;;;;;;7.90;7.30;;;;;;;4.05;90.12;100106.56;5072343;28;20441;-67
2021/12/15 02:45:35;;;;;;;8.40;7.60;;;;;;;4.04;90.72;100105.72;5071987;28;20227;-66
2021/12/15 02:48:02;;;;;;;7.20;6.70;;;;;;;4.01;90.91;100106.00;5071811;28;20242;-66
2021/12/15 02:50:30;;;;;;;8.13;7.47;;;;;;;4.02;90.53;100097.16;5071766;28;20499;-66
2021/12/15 02:52:59;;;;;;;7.60;7.00;;;;;;;4.01;90.55;100094.66;5071681;28;20192;-66
2021/12/15 02:55:28;;;;;;;7.40;6.90;;;;;;;4.01;90.10;100100.75;5071546;28;20199;-66
2021/12/15 02:57:55;;;;;;;8.00;7.50;;;;;;;3.97;90.32;100088.03;5075672;28;20261;-66
2021/12/15 03:00:25;;;;;;;7.77;7.27;;;;;;;3.92;90.89;100091.06;5075919;28;20445;-66
2021/12/15 03:03:27;;;;;;;7.23;6.70;;;;;;;4.06;90.47;100092.44;5076771;28;20246;-66
2021/12/15 03:06:02;;;;;;;8.37;7.70;;;;;;;4.02;90.89;100081.41;5076709;28;20192;-66
2021/12/15 03:08:47;;;;;;;7.37;6.73;;;;;;;4.04;90.58;100078.63;5076105;28;20437;-66
2021/12/15 03:16:45;;;;;;;7.00;6.50;;;;;;;4.17;89.49;100085.22;5076254;28;20447;-66
2021/12/15 03:19:13;;;;;;;6.97;6.37;;;;;;;4.09;89.42;100085.09;5075144;28;20580;-66
2021/12/15 03:21:40;;;;;;;6.90;6.40;;;;;;;4.04;89.56;100084.69;5075034;28;20961;-66
2021/12/15 03:24:12;;;;;;;6.63;6.03;;;;;;;4.06;89.52;100082.78;5075401;28;20663;-66
2021/12/15 03:26:50;;;;;;;6.50;5.90;;;;;;;4.14;89.31;100085.53;5075754;28;20790;-66
2021/12/15 03:35:00;;;;;;;7.07;6.53;;;;;;;4.11;88.69;100096.31;5041612;28;20957;-66
2021/12/15 03:37:29;;;;;;;6.50;6.10;;;;;;;4.08;88.61;100083.44;5074959;28;20437;-66
2021/12/15 03:39:59;;;;;;;6.70;6.30;;;;;;;4.02;89.05;100091.91;5075100;28;20300;-67
2021/12/15 03:42:31;;;;;;;6.40;6.00;;;;;;;3.98;88.98;100093.16;5075924;28;20487;-67
2021/12/15 03:44:59;;;;;;;6.10;5.63;;;;;;;4.05;88.58;100094.22;5075990;28;20187;-66
2021/12/15 03:47:29;;;;;;;6.50;6.00;;;;;;;4.05;89.10;100107.38;5075465;28;20480;-66
2021/12/15 03:49:57;;;;;;;7.20;6.60;;;;;;;4.06;88.39;100103.81;5074621;28;21022;-66
2021/12/15 03:52:25;;;;;;;6.10;5.70;;;;;;;4.03;88.20;100103.22;5074681;28;20975;-66
2021/12/15 03:54:52;;;;;;;6.43;6.03;;;;;;;4.13;88.16;100104.88;5074621;28;20442;-67
2021/12/15 03:57:20;;;;;;;5.87;5.50;;;;;;;4.07;87.98;100108.09;5074884;28;20492;-67
2021/12/15 03:59:49;;;;;;;6.70;6.30;;;;;;;4.08;87.89;100107.09;5074482;28;20992;-67
2021/12/15 04:02:18;;;;;;;7.27;6.43;;;;;;;4.08;87.62;100104.47;5074439;28;20196;-67
2021/12/15 04:04:47;;;;;;;6.60;6.20;;;;;;;4.16;87.43;100104.59;5074414;28;20196;-66
2021/12/15 04:07:15;;;;;;;7.47;6.77;;;;;;;4.17;87.47;100106.25;5074226;28;20438;-66
2021/12/15 04:09:42;;;;;;;6.83;6.33;;;;;;;4.16;87.35;100104.59;5074659;28;20461;-65
2021/12/15 04:12:10;;;;;;;7.13;6.63;;;;;;;4.24;87.64;100111.78;5074305;28;20949;-66
2021/12/15 04:14:43;;;;;;;6.40;6.03;;;;;;;4.21;87.61;100112.09;5074800;28;20437;-66
2021/12/15 04:17:26;;;;;;;6.80;6.30;;;;;;;4.20;87.61;100116.50;5074538;28;20434;-66
2021/12/15 04:19:56;;;;;;;7.37;6.77;;;;;;;4.22;86.98;100114.56;5074050;28;20493;-66
2021/12/15 04:22:24;;;;;;;7.53;6.93;;;;;;;4.19;87.48;100114.84;5074855;28;20853;-66
2021/12/15 04:24:51;;;;;;;7.60;7.00;;;;;;;4.18;87.33;100118.47;5074024;28;20503;-66
2021/12/15 04:27:18;;;;;;;8.43;7.63;;;;;;;4.17;87.13;100119.41;5073967;28;20249;-66
2021/12/15 04:29:46;;;;;;;8.57;7.87;;;;;;;4.13;87.25;100125.91;5074192;28;20469;-66
2021/12/15 04:32:19;;;;;;;8.33;7.63;;;;;;;4.18;87.91;100126.34;5074112;28;20445;-66
2021/12/15 04:34:46;;;;;;;8.70;7.90;;;;;;;4.20;87.13;100127.00;5073853;28;20779;-66
2021/12/15 04:37:13;;;;;;;8.60;7.83;;;;;;;4.16;87.12;100128.25;5074172;28;20192;-66
2021/12/15 04:39:40;;;;;;;8.43;7.70;;;;;;;4.08;88.10;100128.13;5074196;28;20469;-66
2021/12/15 04:42:07;;;;;;;8.60;7.70;;;;;;;4.08;88.00;100128.13;5074011;28;20187;-66
2021/12/15 04:44:35;;;;;;;8.43;7.80;;;;;;;4.12;87.76;100134.78;5073882;28;20497;-66
2021/12/15 04:47:08;;;;;;;10.03;8.60;;;;;;;4.03;88.13;100135.63;5073896;28;20644;-65
2021/12/15 04:49:41;;;;;;;9.30;8.33;;;;;;;4.06;88.31;100140.59;5073482;28;20817;-65
2021/12/15 04:52:09;;;;;;;8.83;8.13;;;;;;;4.04;88.31;100141.72;5073597;28;20643;-66
2021/12/15 04:54:36;;;;;;;8.80;8.03;;;;;;;4.02;88.66;100149.72;5074527;28;20442;-66
2021/12/15 04:57:05;;;;;;;8.53;7.83;;;;;;;4.13;88.22;100146.94;5073621;28;20196;-66
2021/12/15 04:59:32;;;;;;;8.43;7.73;;;;;;;4.06;88.01;100151.13;5073244;28;20764;-66
2021/12/15 05:02:00;;;;;;;8.93;8.23;;;;;;;4.06;88.19;100156.38;5074070;28;20438;-66
2021/12/15 05:04:27;;;;;;;9.37;8.47;;;;;;;4.03;87.92;100167.16;5073144;28;20430;-66
2021/12/15 05:06:55;;;;;;;8.83;8.13;;;;;;;4.01;87.82;100161.19;5073091;28;20487;-66
2021/12/15 05:09:22;;;;;;;9.07;8.27;;;;;;;4.02;88.02;100165.50;5073432;28;20561;-61
2021/12/15 05:11:50;;;;;;;9.13;8.37;;;;;;;3.94;88.18;100165.34;5073250;28;20446;-61
2021/12/15 05:14:18;;;;;;;9.83;8.83;;;;;;;3.96;87.63;100173.91;5072846;28;20453;-61
2021/12/15 05:16:45;;;;;;;9.43;8.53;;;;;;;3.96;87.85;100171.28;5072779;28;20241;-62
2021/12/15 05:19:11;;;;;;;9.80;8.80;;;;;;;3.97;87.89;100167.69;5072222;28;20269;-61
2021/12/15 05:21:38;;;;;;;10.03;9.13;;;;;;;4.00;87.66;100172.69;5073108;28;20434;-62
2021/12/15 05:24:14;;;;;;;9.23;8.43;;;;;;;4.01;87.60;100174.31;5072684;28;21019;-63
2021/12/15 05:26:42;;;;;;;9.23;8.30;;;;;;;3.97;87.72;100172.13;5073291;28;20429;-62
2021/12/15 05:29:08;;;;;;;9.97;8.87;;;;;;;3.91;88.68;100168.25;5072683;28;20658;-62
2021/12/15 05:31:35;;;;;;;10.47;9.23;;;;;;;3.86;88.82;100170.47;5072648;28;20192;-62
2021/12/15 05:34:03;;;;;;;9.80;8.83;;;;;;;3.93;88.05;100176.00;5073702;28;20430;-63
2021/12/15 05:36:30;;;;;;;10.67;9.10;;;;;;;3.92;87.53;100177.78;5072580;28;20438;-64
2021/12/15 05:38:57;;;;;;;10.53;9.53;;;;;;;3.94;88.02;100186.38;5072718;28;20442;-62
2021/12/15 05:41:25;;;;;;;9.13;8.30;;;;;;;3.96;87.68;100188.88;5072423;28;20225;-63
2021/12/15 05:43:53;;;;;;;12.13;11.00;;;;;;;3.96;87.69;100191.50;5072362;28;20480;-65
2021/12/15 05:46:20;;;;;;;11.33;10.13;;;;;;;4.00;87.87;100198.97;5072839;28;20469;-62
2021/12/15 05:48:47;;;;;;;11.33;10.23;;;;;;;3.93;87.72;100200.47;5072679;28;20446;-62
2021/12/15 05:51:14;;;;;;;10.47;9.47;;;;;;;4.04;87.99;100208.22;5072182;28;20450;-62
2021/12/15 05:53:41;;;;;;;14.50;12.97;;;;;;;4.05;87.08;100209.88;5072478;28;20450;-62
2021/12/15 05:56:07;;;;;;;18.27;13.70;;;;;;;4.03;87.72;100209.22;5073079;28;20200;-62
2021/12/15 05:58:37;;;;;;;22.40;14.43;;;;;;;4.02;87.84;100207.56;5072168;28;20563;-63
2021/12/15 06:01:04;;;;;;;29.67;17.27;;;;;;;4.06;89.07;100208.94;5072459;28;20481;-64
2021/12/15 06:03:31;;;;;;;57.63;27.03;;;;;;;4.08;88.08;100217.50;5073483;28;20445;-63
2021/12/15 06:05:58;;;;;;;53.60;26.17;;;;;;;4.12;86.94;100216.25;5072084;28;20608;-62
2021/12/15 06:08:25;;;;;;;28.67;17.17;;;;;;;4.19;88.10;100220.00;5072133;28;20442;-63
2021/12/15 06:10:52;;;;;;;27.37;15.87;;;;;;;4.17;87.51;100219.31;5072640;28;20499;-63
2021/12/15 06:13:22;;;;;;;15.33;13.07;;;;;;;4.20;86.70;100232.19;5071993;28;20621;-66
2021/12/15 06:15:50;;;;;;;14.13;12.37;;;;;;;4.24;86.93;100228.31;5069929;28;20253;-66
2021/12/15 06:18:19;;;;;;;13.90;12.30;;;;;;;4.32;87.24;100230.25;5052018;28;20431;-65
2021/12/15 06:20:47;;;;;;;13.27;11.73;;;;;;;4.21;86.80;100228.56;5051878;28;20282;-66
2021/12/15 06:23:18;;;;;;;16.33;11.50;;;;;;;4.22;86.59;100230.25;5051871;28;20262;-67
2021/12/15 06:25:47;;;;;;;13.70;10.97;;;;;;;4.21;86.69;100239.09;5051794;28;20597;-66
2021/12/15 06:28:14;;;;;;;17.20;12.47;;;;;;;4.17;87.74;100240.34;5052140;28;20516;-66
2021/12/15 06:30:41;;;;;;;17.20;13.33;;;;;;;4.17;87.27;100237.69;5051891;28;20272;-67
2021/12/15 06:33:10;;;;;;;16.80;12.97;;;;;;;4.28;86.87;100234.13;5057754;28;20201;-66
2021/12/15 06:35:37;;;;;;;16.40;12.83;;;;;;;4.27;86.71;100242.97;5060892;28;20881;-66
2021/12/15 06:38:06;;;;;;;17.87;14.13;;;;;;;4.34;86.15;100239.66;5063857;28;20205;-65
2021/12/15 06:40:33;;;;;;;19.77;14.27;;;;;;;4.24;86.33;100244.09;5056119;28;20527;-69
2021/12/15 06:43:00;;;;;;;38.77;23.07;;;;;;;4.32;86.68;100246.84;5071668;28;20732;-66
2021/12/15 06:45:34;;;;;;;28.23;17.37;;;;;;;4.36;85.89;100250.03;5071381;28;21021;-66
2021/12/15 06:59:01;;;;;;;18.50;14.83;;;;;;;4.42;85.80;100250.31;5049541;28;20179;-68
2021/12/15 07:01:27;;;;;;;15.10;12.57;;;;;;;4.51;85.92;100257.38;5049857;28;20286;-69
2021/12/15 07:03:54;;;;;;;23.23;13.43;;;;;;;4.51;85.36;100246.88;5049376;28;20439;-68
2021/12/15 07:06:23;;;;;;;14.17;10.63;;;;;;;4.58;85.08;100242.69;5055414;28;20196;-68
2021/12/15 07:08:50;;;;;;;14.57;11.17;;;;;;;4.64;85.11;100257.94;5070272;28;20724;-69
2021/12/15 07:11:17;;;;;;;13.80;11.40;;;;;;;4.63;85.28;100261.53;5070331;28;20196;-67
2021/12/15 07:13:44;;;;;;;13.53;11.27;;;;;;;4.70;85.00;100252.09;5069460;28;20200;-68
2021/12/15 07:16:10;;;;;;;15.20;12.60;;;;;;;4.69;84.81;100250.44;5069333;28;20445;-66
2021/12/15 07:18:49;;;;;;;19.30;14.40;;;;;;;4.73;84.67;100254.44;5069163;28;20203;-66
2021/12/15 07:21:21;;;;;;;16.23;14.10;;;;;;;4.81;84.94;100253.75;5069538;28;20804;-66
2021/12/15 07:23:52;;;;;;;14.30;11.83;;;;;;;4.82;84.05;100260.69;5071669;28;20241;-66
2021/12/15 07:26:20;;;;;;;19.07;14.37;;;;;;;4.83;84.63;100265.78;5071089;28;20184;-67
2021/12/15 07:28:47;;;;;;;16.17;12.00;;;;;;;4.76;84.02;100255.97;5071473;28;20195;-68
2021/12/15 07:31:15;;;;;;;13.73;12.27;;;;;;;4.83;84.28;100257.88;5071551;28;20253;-67
2021/12/15 07:33:42;;;;;;;14.47;11.63;;;;;;;4.80;83.52;100247.66;5070784;28;20242;-70
2021/12/15 07:36:08;;;;;;;17.20;12.03;;;;;;;4.98;83.81;100267.00;5071804;28;20188;-67
2021/12/15 07:38:41;;;;;;;12.67;11.20;;;;;;;5.02;82.86;100270.19;5071125;28;20195;-68
2021/12/15 07:41:19;;;;;;;11.33;10.13;;;;;;;5.08;82.40;100262.56;5062962;28;20204;-68
2021/12/15 07:43:45;;;;;;;11.70;10.63;;;;;;;5.02;83.22;100270.19;5074585;28;20266;-67
2021/12/15 07:46:12;;;;;;;16.00;10.23;;;;;;;5.25;82.26;100263.63;5073024;28;20227;-67
2021/12/15 07:48:40;;;;;;;11.80;9.67;;;;;;;5.44;81.40;100269.63;5063626;28;20192;-68
2021/12/15 07:51:10;;;;;;;11.77;10.17;;;;;;;5.54;81.20;100275.72;5064156;28;20269;-68
2021/12/15 07:53:38;;;;;;;17.07;10.47;;;;;;;5.50;81.85;100276.16;5075326;28;20352;-68
2021/12/15 07:56:05;;;;;;;12.87;10.57;;;;;;;5.60;81.03;100277.75;5059470;28;20196;-68
2021/12/15 07:58:34;;;;;;;11.23;10.13;;;;;;;5.60;80.79;100284.84;5061509;28;20199;-68
2021/12/15 08:01:02;;;;;;;9.47;8.67;;;;;;;5.63;80.34;100285.38;5074396;28;20285;-68
2021/12/15 08:03:30;;;;;;;13.70;10.77;;;;;;;5.62;80.56;100293.44;5074590;28;20214;-69
2021/12/15 08:05:58;;;;;;;10.47;8.83;;;;;;;5.65;81.03;100288.69;5074937;28;20197;-69
2021/12/15 08:08:24;;;;;;;11.00;8.70;;;;;;;5.74;81.44;100281.72;5062331;28;20683;-68
2021/12/15 08:10:56;;;;;;;12.03;9.83;;;;;;;5.75;79.60;100294.75;5054305;28;20725;-69
2021/12/15 08:13:24;;;;;;;11.90;10.63;;;;;;;5.79;79.74;100293.50;5054135;28;20200;-72
2021/12/15 08:15:52;;;;;;;11.10;9.90;;;;;;;5.67;79.63;100270.94;5053793;28;20657;-70
2021/12/15 08:18:19;;;;;;;14.83;11.63;;;;;;;5.81;80.46;100288.13;5070786;28;20196;-70
2021/12/15 08:20:45;;;;;;;12.03;9.77;;;;;;;5.85;79.32;100283.38;5066505;28;20245;-69
2021/12/15 08:23:12;;;;;;;16.53;10.97;;;;;;;5.81;79.95;100287.28;5054720;28;20188;-70
2021/12/15 08:25:39;;;;;;;15.73;9.53;;;;;;;5.74;79.51;100287.84;5054254;28;20192;-70
2021/12/15 08:28:08;;;;;;;13.17;10.83;;;;;;;5.81;80.17;100298.66;5053868;28;20192;-70
2021/12/15 08:30:36;;;;;;;16.67;12.57;;;;;;;5.78;79.96;100297.13;5054122;28;20310;-70
2021/12/15 08:33:07;;;;;;;11.43;10.30;;;;;;;5.85;79.65;100299.19;5053680;28;20660;-70
2021/12/15 08:35:36;;;;;;;12.00;10.60;;;;;;;5.92;78.98;100300.28;5054122;28;20246;-68
2021/12/15 08:38:04;;;;;;;11.07;9.07;;;;;;;5.82;79.16;100310.00;5053706;28;20656;-66
2021/12/15 08:40:31;;;;;;;11.97;10.83;;;;;;;5.88;79.33;100298.91;5060205;28;20220;-67
2021/12/15 08:42:58;;;;;;;13.87;11.43;;;;;;;6.04;79.35;100309.66;5072668;28;20671;-68
2021/12/15 08:45:27;;;;;;;10.33;9.23;;;;;;;6.28;77.54;100317.84;5073397;28;20246;-68
2021/12/15 08:47:55;;;;;;;14.13;11.03;;;;;;;6.58;78.14;100314.84;5057728;28;20721;-67
2021/12/15 08:50:27;;;;;;;12.63;10.50;;;;;;;6.86;76.14;100314.59;5054048;28;20204;-69
2021/12/15 08:52:54;;;;;;;10.87;8.43;;;;;;;6.74;75.32;100317.63;5063708;28;20188;-68
2021/12/15 08:55:21;;;;;;;11.97;10.53;;;;;;;6.77;75.94;100304.13;5061453;28;20197;-68
2021/12/15 08:57:52;;;;;;;10.90;9.27;;;;;;;6.77;75.53;100312.88;5060963;28;20720;-68
2021/12/15 09:00:21;;;;;;;10.60;9.50;;;;;;;6.74;76.64;100315.00;5093559;28;20207;-66
2021/12/15 09:02:48;;;;;;;13.57;10.13;;;;;;;6.69;76.25;100309.34;5093380;28;20217;-67
2021/12/15 09:05:20;;;;;;;9.97;9.07;;;;;;;6.66;75.46;100305.16;5093367;28;20194;-67
2021/12/15 09:07:49;;;;;;;10.60;9.37;;;;;;;6.59;76.06;100306.78;5093822;28;20187;-68
2021/12/15 09:10:16;;;;;;;11.87;10.67;;;;;;;6.52;76.70;100307.50;5093368;28;20198;-68
2021/12/15 09:12:43;;;;;;;10.20;9.17;;;;;;;6.51;75.73;100311.13;5094099;28;20195;-67
2021/12/15 09:15:11;;;;;;;15.73;10.17;;;;;;;6.46;76.50;100310.75;5093680;28;20633;-63
2021/12/15 09:17:38;;;;;;;11.27;10.10;;;;;;;6.36;76.75;100307.38;5058296;28;20197;-64
2021/12/15 09:20:06;;;;;;;10.93;9.80;;;;;;;6.31;77.11;100314.88;5053152;28;20270;-64
2021/12/15 09:22:34;;;;;;;13.53;10.60;;;;;;;6.29;76.53;100315.03;5053214;28;20268;-64
2021/12/15 09:25:03;;;;;;;12.33;9.47;;;;;;;6.26;77.01;100304.78;5064466;28;20712;-65
2021/12/15 09:27:29;;;;;;;13.17;10.53;;;;;;;6.33;77.24;100310.28;5072646;28;20192;-64
2021/12/15 09:29:56;;;;;;;15.23;10.83;;;;;;;6.30;77.76;100306.16;5072691;28;20250;-64
2021/12/15 09:32:23;;;;;;;11.77;9.70;;;;;;;6.39;76.42;100314.97;5073420;28;20197;-63
2021/12/15 09:34:50;;;;;;;11.03;9.83;;;;;;;6.37;76.66;100309.03;5072405;28;20197;-65
2021/12/15 09:37:18;;;;;;;11.83;10.43;;;;;;;6.48;76.80;100306.13;5072452;28;20584;-65
2021/12/15 09:39:45;;;;;;;15.37;12.37;;;;;;;6.64;76.91;100316.84;5072382;28;20283;-65
2021/12/15 09:42:17;;;;;;;13.77;11.77;;;;;;;6.47;76.57;100312.41;5053016;28;20225;-64
2021/12/15 09:44:45;;;;;;;10.70;9.70;;;;;;;6.42;76.47;100314.66;5052884;28;20187;-65
2021/12/15 09:47:20;;;;;;;11.57;10.07;;;;;;;6.42;76.54;100319.94;5053173;28;20310;-66
2021/12/15 10:03:46;;;;;;;13.00;10.10;;;;;;;6.46;76.80;100305.47;5071608;28;20206;-67
2021/12/15 10:20:04;;;;;;;12.70;11.40;;;;;;;6.77;76.07;100304.94;5056471;28;20202;-65
2021/12/15 10:22:38;;;;;;;12.73;11.03;;;;;;;6.83;75.85;100316.72;5072226;28;20196;-66
2021/12/15 10:25:10;;;;;;;10.90;9.90;;;;;;;6.65;75.40;100305.34;5071974;28;20217;-64
2021/12/15 10:27:41;;;;;;;12.27;10.80;;;;;;;6.72;75.07;100307.22;5072199;28;20188;-65
2021/12/15 10:30:19;;;;;;;11.87;10.67;;;;;;;6.60;75.36;100308.41;5079881;28;20249;-66
2021/12/15 10:32:48;;;;;;;10.30;9.30;;;;;;;6.49;74.95;100305.19;5090077;28;20663;-64
2021/12/15 10:35:18;;;;;;;10.73;9.17;;;;;;;6.48;73.97;100309.63;5071690;28;20614;-64
2021/12/15 10:38:27;;;;;;;11.13;9.90;;;;;;;6.51;74.42;100303.22;5069537;28;20683;-65
2021/12/15 10:41:01;;;;;;;11.17;10.00;;;;;;;6.47;74.60;100309.75;5063726;28;20209;-65
2021/12/15 10:43:31;;;;;;;15.77;11.10;;;;;;;6.48;75.88;100306.13;5071810;28;20709;-65
2021/12/15 10:46:02;;;;;;;11.47;10.40;;;;;;;6.54;75.92;100308.19;5071720;28;20236;-64
2021/12/15 10:48:38;;;;;;;14.57;10.97;;;;;;;6.67;75.42;100300.72;5051637;28;20648;-64
2021/12/15 10:51:31;;;;;;;16.67;12.67;;;;;;;6.54;75.04;100303.75;5052104;28;20324;-64
2021/12/15 10:54:00;;;;;;;11.33;9.77;;;;;;;6.53;75.94;100301.28;5054565;28;20192;-64
2021/12/15 10:56:29;;;;;;;14.43;11.60;;;;;;;6.66;75.17;100302.53;5061912;28;20656;-64
2021/12/15 10:58:59;;;;;;;12.93;11.50;;;;;;;6.56;75.86;100306.22;5051739;28;20250;-65
2021/12/15 11:01:52;;;;;;;12.00;10.57;;;;;;;6.53;75.52;100303.91;5050526;28;20733;-65
2021/12/15 11:04:32;;;;;;;19.77;14.80;;;;;;;6.50;76.28;100304.19;5046829;28;20620;-64
2021/12/15 11:07:09;;;;;;;13.33;11.00;;;;;;;6.44;76.16;100297.72;5051021;28;20553;-66
2021/12/15 11:09:39;;;;;;;14.90;11.63;;;;;;;6.47;75.18;100291.28;5051455;28;20192;-65
2021/12/15 11:12:09;;;;;;;12.90;11.60;;;;;;;6.41;76.10;100297.19;5051664;28;20575;-66
2021/12/15 11:14:38;;;;;;;12.37;11.07;;;;;;;6.33;75.85;100300.56;5051645;28;20744;-66
2021/12/15 11:17:13;;;;;;;18.63;14.87;;;;;;;6.39;76.59;100292.06;5052080;28;20189;-65
2021/12/15 11:19:46;;;;;;;16.27;11.73;;;;;;;6.42;76.33;100293.56;5055311;28;20185;-65
2021/12/15 11:22:47;;;;;;;16.43;12.80;;;;;;;6.32;75.74;100298.09;5055107;28;20218;-65
2021/12/15 11:25:19;;;;;;;13.30;10.77;;;;;;;6.24;76.19;100290.91;5060436;28;20206;-66
2021/12/15 11:27:50;;;;;;;12.63;10.47;;;;;;;6.22;75.59;100297.31;5095754;28;20210;-67
2021/12/15 11:30:25;;;;;;;13.40;10.27;;;;;;;6.18;76.32;100299.44;5096565;28;20600;-65
2021/12/15 11:32:57;;;;;;;16.03;11.63;;;;;;;6.25;76.26;100308.38;5095195;28;20715;-66
2021/12/15 11:35:27;;;;;;;11.57;10.10;;;;;;;6.25;76.18;100302.28;5095287;28;20253;-66
2021/12/15 11:37:57;;;;;;;14.63;11.10;;;;;;;6.11;76.31;100302.78;5095221;28;20546;-66
2021/12/15 11:40:33;;;;;;;12.27;10.00;;;;;;;6.05;76.34;100295.47;5075823;28;20242;-65
2021/12/15 11:43:00;;;;;;;11.03;9.93;;;;;;;6.01;76.42;100300.22;5054780;28;20614;-65
2021/12/15 11:45:28;;;;;;;11.50;10.40;;;;;;;6.08;75.88;100300.47;5054808;28;20196;-65
2021/12/15 11:50:50;;;;;;;17.00;12.87;;;;;;;6.00;76.61;100297.72;5104785;27;1412659;-66
2021/12/15 11:53:35;;;;;;;12.93;11.50;;;;;;;5.89;76.98;100290.00;5130555;28;20624;-66
2021/12/15 11:56:13;;;;;;;17.30;11.70;;;;;;;5.98;76.71;100297.03;5130049;28;20544;-64
2021/12/15 11:58:40;;;;;;;15.97;12.10;;;;;;;5.99;76.98;100301.31;5130849;28;20254;-65
2021/12/15 12:01:08;;;;;;;13.07;11.77;;;;;;;5.96;76.90;100285.81;5130883;28;20574;-65
2021/12/15 12:03:35;;;;;;;17.43;12.40;;;;;;;5.95;77.34;100286.81;5130403;28;20223;-65
2021/12/15 12:06:03;;;;;;;16.27;13.57;;;;;;;5.97;77.25;100288.31;5130295;28;20248;-66
2021/12/15 12:08:31;;;;;;;25.17;16.90;;;;;;;5.92;76.89;100300.28;5130240;28;20196;-66
2021/12/15 12:11:05;;;;;;;13.23;11.83;;;;;;;5.82;76.63;100295.03;5130544;28;20190;-66
2021/12/15 12:13:38;;;;;;;14.27;12.67;;;;;;;5.91;76.76;100293.34;5130212;28;20266;-66
2021/12/15 12:16:08;;;;;;;18.90;12.13;;;;;;;5.98;76.58;100299.66;5129886;28;20273;-65
2021/12/15 12:18:36;;;;;;;19.50;12.07;;;;;;;6.13;76.74;100300.84;5129541;28;20225;-65
2021/12/15 12:21:07;;;;;;;19.13;13.40;;;;;;;6.14;75.19;100300.69;5130601;28;20262;-64
2021/12/15 12:23:36;;;;;;;12.83;9.20;;;;;;;6.09;75.47;100296.84;5130020;28;20186;-69
2021/12/15 12:26:05;;;;;;;14.37;10.90;;;;;;;6.06;75.48;100291.84;5129661;28;20610;-68
2021/12/15 12:28:35;;;;;;;12.80;10.27;;;;;;;5.98;75.04;100295.25;5129473;28;20684;-68
2021/12/15 12:31:09;;;;;;;17.43;10.60;;;;;;;5.97;75.90;100298.00;5130622;28;20223;-70
2021/12/15 12:33:36;;;;;;;17.87;12.43;;;;;;;6.06;75.91;100302.41;5129850;28;20197;-69
2021/12/15 12:36:08;;;;;;;12.10;10.80;;;;;;;6.04;75.26;100304.38;5129345;28;20665;-70